Time;durP1;ratioP1;P1;durP2;ratioP2;P2;SDS_P1;SDS_P2;PMS_P1;PMS_P2;Temp;Humidity;BMP_temperature;BMP_pressure;BME280_temperature;BME280_humidity;BME280_pressure;Samples;Min_cycle;Max_cycle;Signal;HPM_P1;HPM_P2
2021/12/08 00:00:31;;;;;;;14.35;6.28;;;;;;;6.43;65.27;99082.22;5144857;28;20421;-43
2021/12/08 00:03:21;;;;;;;9.97;6.20;;;;;;;6.50;65.60;99071.06;5162175;28;20436;-42
2021/12/08 00:05:54;;;;;;;8.73;5.30;;;;;;;6.46;64.98;99052.25;5148370;28;20471;-42
2021/12/08 00:08:30;;;;;;;10.02;5.57;;;;;;;6.52;65.35;99058.63;5151643;28;20428;-40
2021/12/08 00:13:55;;;;;;;8.57;5.60;;;;;;;6.62;65.22;99094.16;5157010;28;20413;-43
2021/12/08 00:16:28;;;;;;;9.57;5.30;;;;;;;6.63;65.38;99089.75;5163755;28;20468;-43
2021/12/08 00:19:00;;;;;;;9.70;6.45;;;;;;;6.68;65.27;99087.44;5159658;28;20424;-40
2021/12/08 00:21:32;;;;;;;10.48;6.68;;;;;;;6.70;65.38;99091.53;5158208;28;20424;-44
2021/12/08 00:24:07;;;;;;;10.30;6.15;;;;;;;6.69;65.54;99089.91;5148497;28;20974;-42
2021/12/08 00:26:41;;;;;;;7.30;5.33;;;;;;;6.72;65.57;99099.25;5152699;28;20424;-46
2021/12/08 00:29:13;;;;;;;14.45;6.10;;;;;;;6.74;65.51;99097.25;5163470;28;20408;-42
2021/12/08 00:31:47;;;;;;;8.75;6.15;;;;;;;6.76;65.60;99089.22;5160901;28;20408;-40
2021/12/08 00:34:19;;;;;;;8.00;5.30;;;;;;;6.76;65.42;99087.44;5154199;28;20471;-43
2021/12/08 00:36:56;;;;;;;9.50;6.50;;;;;;;6.79;65.56;99070.53;5155205;28;20860;-40
2021/12/08 00:39:28;;;;;;;12.23;6.50;;;;;;;6.84;65.72;99073.44;5161417;28;20508;-49
2021/12/08 00:42:02;;;;;;;10.13;6.38;;;;;;;6.84;65.52;99063.78;5162058;28;20901;-41
2021/12/08 00:44:34;;;;;;;11.52;6.82;;;;;;;6.87;65.57;99057.38;5162005;28;20440;-43
2021/12/08 00:47:07;;;;;;;11.55;6.20;;;;;;;6.87;65.55;99062.63;5160334;28;20427;-42
2021/12/08 00:49:40;;;;;;;10.30;6.80;;;;;;;6.88;65.69;99059.84;5157049;28;20418;-49
2021/12/08 00:52:14;;;;;;;9.20;5.80;;;;;;;6.89;65.74;99055.41;5160981;28;20412;-41
2021/12/08 00:54:46;;;;;;;8.40;6.82;;;;;;;6.92;65.84;99049.81;5149746;28;20430;-42
2021/12/08 00:57:20;;;;;;;8.75;6.13;;;;;;;6.95;65.70;99043.41;5155652;28;20428;-40
2021/12/08 00:59:52;;;;;;;9.00;6.95;;;;;;;6.93;65.82;99041.75;5157722;28;20431;-41
2021/12/08 01:02:25;;;;;;;8.27;7.22;;;;;;;6.96;65.70;99039.78;5154850;28;20553;-45
2021/12/08 01:04:59;;;;;;;10.13;6.78;;;;;;;7.04;66.11;99050.25;5159313;28;20426;-41
2021/12/08 01:07:31;;;;;;;11.07;7.10;;;;;;;7.09;65.90;99067.16;5159328;28;20785;-45
2021/12/08 01:10:05;;;;;;;15.25;7.72;;;;;;;7.12;65.58;99063.34;5159978;28;20539;-42
2021/12/08 01:12:39;;;;;;;10.98;7.60;;;;;;;7.15;65.92;99076.13;5157831;28;20794;-41
2021/12/08 01:15:12;;;;;;;11.73;8.60;;;;;;;7.18;65.80;99073.16;5151648;28;20433;-40
2021/12/08 01:17:44;;;;;;;10.65;7.93;;;;;;;7.20;65.76;99071.19;5151856;28;20431;-41
2021/12/08 01:20:18;;;;;;;8.43;7.35;;;;;;;7.20;65.77;99070.38;5159864;28;20432;-40
2021/12/08 01:22:51;;;;;;;17.75;8.27;;;;;;;7.20;65.92;99078.25;5149659;28;20437;-41
2021/12/08 01:25:23;;;;;;;13.18;8.25;;;;;;;7.20;65.91;99068.56;5157964;28;20782;-41
2021/12/08 01:27:57;;;;;;;17.30;9.35;;;;;;;7.22;66.14;99073.66;5149534;28;20847;-41
2021/12/08 01:30:29;;;;;;;11.83;9.10;;;;;;;7.25;65.96;99061.00;5148560;28;20906;-40
2021/12/08 01:33:03;;;;;;;14.93;9.05;;;;;;;7.27;65.89;99080.00;5153791;28;20489;-44
2021/12/08 01:35:35;;;;;;;13.80;8.45;;;;;;;7.27;65.93;99090.50;5147263;28;20454;-41
2021/12/08 01:38:08;;;;;;;11.57;9.07;;;;;;;7.28;66.16;99088.72;5160377;28;20525;-43
2021/12/08 01:40:41;;;;;;;11.77;9.20;;;;;;;7.30;66.09;99090.16;5150735;28;20416;-50
2021/12/08 01:43:25;;;;;;;13.60;8.25;;;;;;;7.29;66.06;99093.78;5158503;28;20914;-43
2021/12/08 01:46:01;;;;;;;14.98;9.57;;;;;;;7.30;66.16;99095.41;5155533;28;20782;-41
2021/12/08 01:48:37;;;;;;;15.38;9.20;;;;;;;7.34;66.08;99099.34;5154111;28;20483;-41
2021/12/08 01:51:13;;;;;;;12.25;8.13;;;;;;;7.34;66.11;99104.59;5157511;28;20426;-41
2021/12/08 01:53:50;;;;;;;15.95;9.60;;;;;;;7.33;66.58;99113.47;5144291;28;20434;-42
2021/12/08 01:56:28;;;;;;;18.38;10.07;;;;;;;7.37;66.21;99111.31;5151078;28;20425;-49
2021/12/08 01:59:03;;;;;;;13.43;9.30;;;;;;;7.39;66.09;99115.41;5155310;28;20424;-43
2021/12/08 02:01:38;;;;;;;15.25;10.48;;;;;;;7.39;66.27;99120.66;5155983;28;20785;-41
2021/12/08 02:04:11;;;;;;;16.20;9.93;;;;;;;7.41;66.17;99114.44;5150512;28;20401;-40
2021/12/08 02:06:47;;;;;;;14.95;10.38;;;;;;;7.44;66.34;99114.09;5160326;28;20401;-41
2021/12/08 02:09:19;;;;;;;19.27;11.00;;;;;;;7.46;66.24;99110.28;5157040;28;20496;-44
2021/12/08 02:11:55;;;;;;;15.05;11.00;;;;;;;7.49;66.19;99114.38;5151248;28;20565;-42
2021/12/08 02:14:29;;;;;;;15.30;10.40;;;;;;;7.48;66.27;99118.00;5162361;28;20429;-40
2021/12/08 02:17:01;;;;;;;17.38;10.68;;;;;;;7.48;66.44;99123.25;5136201;28;20814;-44
2021/12/08 02:19:33;;;;;;;14.93;10.48;;;;;;;7.51;66.39;99122.91;5159116;28;20492;-42
2021/12/08 02:22:08;;;;;;;21.27;11.20;;;;;;;7.45;66.25;99115.72;5159060;28;20770;-42
2021/12/08 02:24:40;;;;;;;20.65;11.95;;;;;;;7.56;66.30;99124.03;5161445;28;20419;-45
2021/12/08 02:27:12;;;;;;;23.70;13.98;;;;;;;7.61;66.32;99134.00;5163281;28;20430;-40
2021/12/08 02:29:51;;;;;;;22.30;13.20;;;;;;;7.61;66.41;99134.81;5161989;28;20893;-41
2021/12/08 02:46:39;;;;;;;18.15;11.65;;;;;;;7.62;66.46;99135.66;5154645;28;20473;-41
2021/12/08 02:47:03;;;;;;;20.65;12.65;;;;;;;7.71;66.58;99145.13;5153755;28;20781;-42
2021/12/08 02:49:38;;;;;;;25.25;12.10;;;;;;;7.62;66.65;99140.91;5159949;28;20516;-46
2021/12/08 02:52:14;;;;;;;20.65;11.77;;;;;;;7.69;66.68;99147.13;5162911;28;20415;-42
2021/12/08 02:54:51;;;;;;;23.50;12.50;;;;;;;7.65;66.56;99143.19;5159265;28;20418;-41
2021/12/08 02:57:28;;;;;;;19.70;11.55;;;;;;;7.68;66.72;99139.38;5154563;28;20430;-41
2021/12/08 03:00:01;;;;;;;16.27;10.35;;;;;;;7.74;66.77;99159.72;5146997;28;20434;-43
2021/12/08 03:02:34;;;;;;;18.27;10.18;;;;;;;7.73;66.67;99143.13;5155922;28;21591;-43
2021/12/08 03:05:07;;;;;;;15.30;9.27;;;;;;;7.65;66.71;99140.56;5144771;28;20423;-40
2021/12/08 03:07:39;;;;;;;16.02;8.93;;;;;;;7.71;66.73;99145.13;5154891;28;20858;-41
2021/12/08 03:10:18;;;;;;;13.25;8.95;;;;;;;7.74;66.79;99151.84;5164140;28;20409;-45
2021/12/08 03:12:50;;;;;;;12.95;8.20;;;;;;;7.69;66.83;99147.13;5158286;28;20420;-41
2021/12/08 03:15:23;;;;;;;11.70;5.80;;;;;;;7.66;66.98;99152.72;5157181;28;20439;-45
2021/12/08 03:17:56;;;;;;;6.32;5.00;;;;;;;7.60;67.03;99167.34;5166668;28;20431;-42
2021/12/08 03:20:38;;;;;;;6.72;4.00;;;;;;;7.55;67.06;99160.97;5163684;28;21008;-41
2021/12/08 03:23:16;;;;;;;4.07;2.95;;;;;;;7.53;67.19;99162.97;5163598;28;20424;-46
2021/12/08 03:25:55;;;;;;;6.82;3.60;;;;;;;7.53;67.03;99169.03;5148925;28;20443;-43
2021/12/08 03:28:32;;;;;;;8.80;4.35;;;;;;;7.52;67.15;99162.13;5162078;28;20431;-41
2021/12/08 03:31:09;;;;;;;7.65;3.40;;;;;;;7.56;67.12;99165.25;5159336;28;20437;-40
2021/12/08 03:33:42;;;;;;;6.25;3.58;;;;;;;7.59;66.95;99163.09;5162001;28;20422;-41
2021/12/08 03:36:15;;;;;;;6.65;3.58;;;;;;;7.65;66.90;99166.00;5149410;28;20413;-41
2021/12/08 03:38:47;;;;;;;4.80;3.17;;;;;;;7.65;66.90;99171.25;5147753;28;20427;-40
2021/12/08 03:41:21;;;;;;;8.45;4.10;;;;;;;7.57;67.09;99159.00;5146378;28;20418;-42
2021/12/08 03:43:53;;;;;;;6.00;4.45;;;;;;;7.60;67.05;99171.78;5155322;28;20430;-41
2021/12/08 03:46:27;;;;;;;4.82;4.32;;;;;;;7.59;66.87;99173.59;5157027;28;20797;-41
2021/12/08 03:49:00;;;;;;;5.65;4.18;;;;;;;7.59;67.05;99178.03;5157752;28;20531;-42
2021/12/08 03:51:32;;;;;;;8.93;5.63;;;;;;;7.58;66.93;99171.94;5144400;28;20773;-42
2021/12/08 03:54:05;;;;;;;7.22;4.85;;;;;;;7.55;67.16;99179.34;5153454;28;20537;-40
2021/12/08 03:56:39;;;;;;;10.80;6.30;;;;;;;7.56;66.90;99181.81;5162278;28;20804;-42
2021/12/08 03:59:12;;;;;;;10.25;5.25;;;;;;;7.50;67.14;99181.69;5153209;28;21267;-48
2021/12/08 04:01:44;;;;;;;8.07;6.03;;;;;;;7.58;66.98;99189.53;5154104;28;20415;-40
2021/12/08 04:04:17;;;;;;;14.40;7.97;;;;;;;7.53;67.17;99181.34;5143758;28;20431;-47
2021/12/08 04:06:51;;;;;;;13.32;6.88;;;;;;;7.48;67.30;99181.03;5153412;28;20756;-45
2021/12/08 04:09:30;;;;;;;14.43;7.80;;;;;;;7.47;67.31;99190.72;5157105;28;20781;-42
2021/12/08 04:12:05;;;;;;;13.02;6.03;;;;;;;7.45;67.17;99184.81;5160569;28;20476;-42
2021/12/08 04:14:41;;;;;;;13.85;6.97;;;;;;;7.45;67.38;99186.63;5158322;28;20825;-41
2021/12/08 04:17:20;;;;;;;14.10;6.65;;;;;;;7.46;67.15;99196.13;5149364;28;20508;-45
2021/12/08 04:19:54;;;;;;;16.45;7.00;;;;;;;7.47;67.19;99197.78;5149103;28;20414;-41
2021/12/08 04:22:30;;;;;;;16.00;6.22;;;;;;;7.51;67.22;99201.72;5157633;28;20424;-41
2021/12/08 04:25:09;;;;;;;14.43;5.78;;;;;;;7.51;67.33;99193.84;5156271;28;20439;-41
2021/12/08 04:27:46;;;;;;;12.95;5.55;;;;;;;7.52;67.36;99193.66;5151914;28;20417;-41
2021/12/08 04:30:36;;;;;;;9.00;4.70;;;;;;;7.53;67.31;99191.88;5156329;28;20424;-40
2021/12/08 04:33:10;;;;;;;11.77;4.90;;;;;;;7.49;67.24;99183.47;5152008;28;20770;-42
2021/12/08 04:35:46;;;;;;;11.25;4.95;;;;;;;7.47;67.37;99197.78;5144203;28;20769;-42
2021/12/08 04:38:28;;;;;;;7.85;4.05;;;;;;;7.48;67.15;99202.88;5154753;28;20474;-45
2021/12/08 04:41:07;;;;;;;9.60;4.95;;;;;;;7.38;67.36;99195.19;5145870;28;20754;-42
2021/12/08 04:43:52;;;;;;;11.70;5.30;;;;;;;7.43;67.38;99201.72;5152973;28;20817;-43
2021/12/08 04:46:44;;;;;;;10.50;4.43;;;;;;;7.37;67.27;99196.19;5157525;28;20495;-40
2021/12/08 04:49:49;;;;;;;12.85;5.32;;;;;;;7.32;67.38;99197.69;5152244;28;20944;-41
2021/12/08 04:52:31;;;;;;;10.38;4.97;;;;;;;7.30;67.44;99220.66;5151054;28;20513;-41
2021/12/08 05:01:17;;;;;;;28.00;5.05;;;;;;;7.22;67.53;99229.38;5089387;28;20421;-42
2021/12/08 05:04:11;;;;;;;11.70;5.40;;;;;;;7.12;67.34;99208.56;5155228;28;20429;-44
2021/12/08 05:06:59;;;;;;;16.15;4.53;;;;;;;7.14;67.47;99227.56;5157779;28;20899;-41
2021/12/08 05:09:36;;;;;;;24.38;5.03;;;;;;;7.13;67.49;99214.63;5151428;28;20990;-41
2021/12/08 05:12:26;;;;;;;12.65;5.20;;;;;;;7.03;67.37;99203.47;5163368;28;20419;-42
2021/12/08 05:15:06;;;;;;;13.07;4.65;;;;;;;7.05;67.52;99212.00;5156437;28;20766;-42
2021/12/08 05:17:44;;;;;;;20.30;6.10;;;;;;;7.04;67.26;99226.13;5157604;28;20416;-45
2021/12/08 05:20:22;;;;;;;17.42;6.75;;;;;;;7.00;67.50;99230.91;5153480;28;20904;-40
2021/12/08 05:23:00;;;;;;;21.88;6.47;;;;;;;7.01;67.32;99243.03;5151532;28;20791;-42
2021/12/08 05:25:38;;;;;;;20.73;5.63;;;;;;;7.00;67.34;99251.06;5140228;28;20438;-45
2021/12/08 05:28:15;;;;;;;17.52;6.22;;;;;;;7.00;67.37;99248.44;5148365;28;20783;-43
2021/12/08 05:30:51;;;;;;;23.67;7.25;;;;;;;7.01;67.25;99252.72;5148591;28;20426;-42
2021/12/08 05:33:26;;;;;;;21.30;6.40;;;;;;;6.99;67.24;99239.72;5156364;28;20874;-41
2021/12/08 05:35:59;;;;;;;24.52;6.90;;;;;;;6.95;67.25;99227.13;5161544;28;20419;-40
2021/12/08 05:38:32;;;;;;;21.75;6.38;;;;;;;6.94;67.24;99226.31;5155015;28;20439;-42
2021/12/08 05:41:13;;;;;;;18.73;5.90;;;;;;;6.91;67.33;99234.50;5154371;28;20439;-40
2021/12/08 05:43:46;;;;;;;24.63;7.03;;;;;;;6.82;67.40;99219.75;5160902;28;20424;-45
2021/12/08 05:46:23;;;;;;;17.30;6.22;;;;;;;6.86;67.29;99240.25;5153108;28;20436;-45
2021/12/08 05:48:57;;;;;;;19.45;6.80;;;;;;;6.81;67.15;99237.28;5156281;28;20433;-43
2021/12/08 05:51:34;;;;;;;17.75;5.93;;;;;;;6.80;67.30;99258.44;5162807;28;20443;-40
2021/12/08 05:54:16;;;;;;;12.63;5.65;;;;;;;6.77;67.26;99270.09;5163882;28;20435;-41
2021/12/08 05:56:54;;;;;;;14.32;4.40;;;;;;;6.72;67.38;99282.06;5163968;28;20647;-43
2021/12/08 05:59:26;;;;;;;15.10;5.63;;;;;;;6.70;67.38;99300.59;5170072;28;20482;-47
2021/12/08 06:02:05;;;;;;;14.52;5.25;;;;;;;6.62;67.29;99295.34;5156019;28;20420;-48
2021/12/08 06:04:39;;;;;;;14.70;4.93;;;;;;;6.65;67.19;99295.81;5158339;28;20772;-41
2021/12/08 06:07:13;;;;;;;16.63;5.70;;;;;;;6.62;67.45;99305.81;5161161;28;20745;-42
2021/12/08 06:09:45;;;;;;;12.98;4.53;;;;;;;6.57;67.38;99287.16;5167690;28;20480;-45
2021/12/08 06:12:18;;;;;;;12.50;4.30;;;;;;;6.56;67.37;99304.66;5159420;28;20506;-44
2021/12/08 06:14:54;;;;;;;12.65;5.03;;;;;;;6.53;67.35;99301.53;5166242;28;20768;-44
2021/12/08 06:17:30;;;;;;;15.55;3.78;;;;;;;6.56;67.34;99295.97;5164195;28;20418;-43
2021/12/08 06:20:07;;;;;;;11.77;4.13;;;;;;;6.53;67.19;99307.59;5160139;28;20539;-41
2021/12/08 06:22:41;;;;;;;12.73;4.87;;;;;;;6.53;67.28;99306.78;5164995;28;20450;-40
2021/12/08 06:25:17;;;;;;;12.02;4.68;;;;;;;6.52;67.28;99307.78;5163240;28;20443;-42
2021/12/08 06:27:49;;;;;;;13.00;3.85;;;;;;;6.52;67.29;99305.16;5164681;28;20464;-46
2021/12/08 06:30:26;;;;;;;17.03;5.23;;;;;;;6.46;67.21;99299.56;5157589;28;20604;-46
2021/12/08 06:32:59;;;;;;;13.18;4.88;;;;;;;6.52;67.31;99294.66;5168335;28;20517;-40
2021/12/08 06:35:39;;;;;;;13.73;5.25;;;;;;;6.55;67.15;99302.22;5159418;28;20439;-41
2021/12/08 06:38:13;;;;;;;14.63;4.57;;;;;;;6.56;67.16;99303.84;5167807;28;20501;-43
2021/12/08 06:40:54;;;;;;;19.92;5.72;;;;;;;6.55;67.10;99315.31;5162579;28;20490;-44
2021/12/08 06:43:31;;;;;;;15.13;4.57;;;;;;;6.56;67.11;99319.59;5155697;28;20839;-41
2021/12/08 06:46:04;;;;;;;13.23;5.53;;;;;;;6.55;67.01;99320.56;5163280;28;20764;-42
2021/12/08 06:48:41;;;;;;;19.67;4.78;;;;;;;6.47;67.08;99298.59;5154823;28;20439;-44
2021/12/08 06:51:20;;;;;;;10.65;4.82;;;;;;;6.45;67.12;99300.56;5163826;28;20431;-45
2021/12/08 06:53:57;;;;;;;21.17;4.72;;;;;;;6.53;67.10;99312.03;5150477;28;20413;-44
2021/12/08 06:56:35;;;;;;;11.85;4.55;;;;;;;6.50;66.88;99312.34;5157066;28;20425;-43
2021/12/08 06:59:11;;;;;;;10.67;4.67;;;;;;;6.41;67.09;99308.88;5162244;28;20412;-42
2021/12/08 07:01:51;;;;;;;23.25;5.55;;;;;;;6.43;67.07;99313.00;5155521;28;20507;-43
2021/12/08 07:04:32;;;;;;;19.67;5.68;;;;;;;6.43;66.79;99318.25;5160243;28;21006;-41
2021/12/08 07:07:12;;;;;;;16.80;4.13;;;;;;;6.40;66.76;99325.63;5153563;28;20518;-44
2021/12/08 07:09:49;;;;;;;15.70;3.80;;;;;;;6.39;66.84;99337.91;5162861;28;20424;-45
2021/12/08 07:12:29;;;;;;;14.18;5.03;;;;;;;6.38;66.89;99335.44;5151062;28;20419;-49
2021/12/08 07:15:08;;;;;;;13.80;4.82;;;;;;;6.37;66.69;99326.75;5152157;28;20862;-44
2021/12/08 07:17:44;;;;;;;18.00;5.55;;;;;;;6.34;66.62;99319.19;5152398;28;20417;-46
2021/12/08 07:20:34;;;;;;;15.18;5.00;;;;;;;6.32;66.66;99331.66;5146576;28;20937;-43
2021/12/08 07:23:12;;;;;;;21.20;4.90;;;;;;;6.30;66.40;99346.72;5158740;28;20535;-42
2021/12/08 07:25:46;;;;;;;14.77;4.15;;;;;;;6.25;66.51;99335.88;5156414;28;20822;-45
2021/12/08 07:28:23;;;;;;;18.38;4.88;;;;;;;6.24;66.66;99339.50;5164976;28;20421;-40
2021/12/08 07:31:00;;;;;;;14.73;4.72;;;;;;;6.19;66.53;99368.81;5159009;28;20598;-45
2021/12/08 07:33:32;;;;;;;8.45;3.72;;;;;;;6.17;66.74;99352.41;5159615;28;20511;-47
2021/12/08 07:36:10;;;;;;;16.95;6.00;;;;;;;6.14;66.75;99347.50;5160573;28;20923;-43
2021/12/08 07:38:47;;;;;;;19.95;6.25;;;;;;;6.09;66.74;99341.88;5159801;28;20672;-43
2021/12/08 07:41:29;;;;;;;16.70;5.80;;;;;;;6.12;66.65;99351.25;5151418;28;20416;-46
2021/12/08 07:44:08;;;;;;;16.08;6.13;;;;;;;6.15;66.65;99350.94;5154860;28;20903;-43
2021/12/08 07:46:51;;;;;;;16.40;5.50;;;;;;;6.16;66.42;99352.56;5150882;28;20431;-42
2021/12/08 07:49:28;;;;;;;20.20;7.37;;;;;;;6.14;66.55;99349.28;5151915;28;20556;-43
2021/12/08 07:52:10;;;;;;;21.52;6.07;;;;;;;6.12;66.65;99354.69;5151772;28;20432;-41
2021/12/08 07:54:45;;;;;;;24.17;7.53;;;;;;;6.11;66.60;99360.09;5164656;28;20571;-43
2021/12/08 07:57:21;;;;;;;16.98;6.47;;;;;;;6.10;66.70;99358.44;5151879;28;20423;-45
2021/12/08 07:59:59;;;;;;;19.65;6.38;;;;;;;6.12;66.41;99366.97;5154230;28;20417;-44
2021/12/08 08:02:32;;;;;;;16.27;6.07;;;;;;;6.11;66.36;99375.81;5159839;28;20973;-46
2021/12/08 08:05:09;;;;;;;22.13;7.43;;;;;;;6.11;66.46;99370.59;5159551;28;20437;-44
2021/12/08 08:07:43;;;;;;;19.85;6.10;;;;;;;6.14;66.71;99359.78;5155312;28;20448;-46
2021/12/08 08:10:18;;;;;;;15.55;5.78;;;;;;;6.13;66.54;99358.97;5158829;28;20782;-46
2021/12/08 08:12:57;;;;;;;14.60;5.43;;;;;;;6.16;66.57;99363.03;5156009;28;20451;-47
2021/12/08 08:15:36;;;;;;;23.77;5.32;;;;;;;6.15;66.48;99358.78;5159834;28;20433;-43
2021/12/08 08:18:11;;;;;;;21.42;6.15;;;;;;;6.18;66.45;99353.22;5154201;28;20430;-48
2021/12/08 08:20:50;;;;;;;15.85;5.88;;;;;;;6.21;66.37;99355.53;5158610;28;20489;-43
2021/12/08 08:23:27;;;;;;;17.05;6.13;;;;;;;6.20;66.44;99359.97;5149690;28;20418;-41
2021/12/08 08:26:05;;;;;;;16.40;6.70;;;;;;;6.22;66.22;99365.88;5150106;28;20436;-42
2021/12/08 08:28:39;;;;;;;16.40;6.45;;;;;;;6.22;66.21;99363.25;5152109;28;20428;-42
2021/12/08 08:31:15;;;;;;;16.20;6.15;;;;;;;6.23;66.23;99364.91;5154119;28;20422;-46
2021/12/08 08:33:49;;;;;;;21.10;6.25;;;;;;;6.24;66.30;99376.19;5159500;28;20412;-46
2021/12/08 08:36:26;;;;;;;16.33;6.93;;;;;;;6.26;66.41;99379.50;5156043;28;20468;-44
2021/12/08 08:39:04;;;;;;;19.40;6.82;;;;;;;6.29;66.42;99373.94;5153832;28;20427;-43
2021/12/08 08:41:42;;;;;;;15.52;4.85;;;;;;;6.32;66.26;99381.50;5160874;28;20444;-43
2021/12/08 08:44:21;;;;;;;13.65;5.07;;;;;;;6.39;66.30;99390.34;5155181;28;20421;-42
2021/12/08 08:46:57;;;;;;;16.90;6.18;;;;;;;6.45;66.34;99387.09;5152654;28;24894;-43
2021/12/08 08:49:34;;;;;;;18.40;5.70;;;;;;;6.53;66.19;99388.09;5158180;28;21320;-46
2021/12/08 08:52:13;;;;;;;15.00;4.93;;;;;;;6.55;66.14;99391.38;5161201;28;20872;-43
2021/12/08 08:54:50;;;;;;;20.55;5.55;;;;;;;6.57;66.06;99394.69;5160186;28;20408;-43
2021/12/08 08:57:27;;;;;;;12.50;4.88;;;;;;;6.63;66.08;99396.69;5151004;28;20444;-44
2021/12/08 09:00:10;;;;;;;19.08;6.47;;;;;;;6.64;66.23;99399.13;5155325;28;20430;-45
2021/12/08 09:02:43;;;;;;;11.48;4.43;;;;;;;6.63;66.09;99401.91;5154345;28;20417;-43
2021/12/08 09:05:21;;;;;;;12.73;4.63;;;;;;;6.61;66.20;99382.88;5163999;28;20746;-43
2021/12/08 09:07:57;;;;;;;19.40;5.83;;;;;;;6.73;66.15;99396.53;5159158;28;20844;-44
2021/12/08 09:10:40;;;;;;;13.05;4.60;;;;;;;6.56;66.06;99364.16;5159926;28;20420;-43
2021/12/08 09:13:21;;;;;;;11.90;4.32;;;;;;;6.58;66.02;99372.72;5164866;28;20504;-45
2021/12/08 09:15:59;;;;;;;18.75;5.45;;;;;;;6.73;65.82;99389.47;5156049;28;20405;-44
2021/12/08 09:18:44;;;;;;;14.80;4.93;;;;;;;6.85;65.92;99411.81;5159138;28;20755;-45
2021/12/08 09:21:24;;;;;;;16.30;5.75;;;;;;;6.89;65.83;99421.00;5162705;28;20437;-43
2021/12/08 09:24:08;;;;;;;11.98;5.45;;;;;;;6.88;65.87;99416.75;5153780;28;20500;-43
2021/12/08 09:26:50;;;;;;;12.88;5.07;;;;;;;6.93;65.89;99430.19;5156779;28;20525;-43
2021/12/08 09:29:27;;;;;;;17.40;4.95;;;;;;;6.93;65.92;99435.44;5155609;28;20685;-43
2021/12/08 09:32:07;;;;;;;17.95;4.93;;;;;;;6.97;65.87;99440.34;5159920;28;20433;-44
2021/12/08 09:34:46;;;;;;;13.35;5.03;;;;;;;7.03;65.83;99431.84;5159145;28;20443;-42
2021/12/08 09:37:22;;;;;;;13.55;5.47;;;;;;;7.06;65.73;99428.88;5159279;28;20607;-45
2021/12/08 09:39:58;;;;;;;12.30;4.77;;;;;;;7.12;65.77;99433.50;5155262;28;20496;-43
2021/12/08 09:42:39;;;;;;;15.07;4.80;;;;;;;7.14;65.66;99428.91;5166525;28;20460;-44
2021/12/08 09:45:21;;;;;;;13.93;4.20;;;;;;;7.21;65.56;99436.97;5169168;28;20507;-43
2021/12/08 09:47:54;;;;;;;14.70;4.77;;;;;;;7.25;65.53;99439.13;5159815;28;20824;-43
2021/12/08 09:50:27;;;;;;;19.10;5.55;;;;;;;7.29;65.60;99450.09;5158661;28;20444;-42
2021/12/08 09:53:00;;;;;;;15.60;4.68;;;;;;;7.30;65.47;99433.34;5161387;28;20422;-43
2021/12/08 09:55:32;;;;;;;18.27;5.25;;;;;;;7.36;65.29;99441.41;5153422;28;20758;-43
2021/12/08 09:58:06;;;;;;;10.77;4.20;;;;;;;7.44;65.29;99437.97;5161260;28;20417;-43
2021/12/08 10:00:50;;;;;;;17.90;4.85;;;;;;;7.11;65.41;99392.47;5160794;28;20460;-43
2021/12/08 10:03:22;;;;;;;12.55;4.22;;;;;;;7.32;65.25;99421.72;5159055;28;20854;-46
2021/12/08 10:05:55;;;;;;;15.75;4.82;;;;;;;7.43;65.13;99436.31;5155729;28;20428;-45
2021/12/08 10:08:28;;;;;;;14.15;4.07;;;;;;;7.51;65.04;99464.41;5161455;28;20420;-47
2021/12/08 10:11:02;;;;;;;17.60;4.63;;;;;;;7.51;65.07;99474.91;5151697;28;20449;-42
2021/12/08 10:13:34;;;;;;;10.18;4.57;;;;;;;7.50;65.27;99474.09;5156602;28;20449;-44
2021/12/08 10:16:09;;;;;;;11.15;4.50;;;;;;;7.53;65.12;99468.53;5165861;28;20420;-43
2021/12/08 10:18:43;;;;;;;12.55;5.30;;;;;;;7.49;65.04;99461.09;5153988;28;20800;-45
2021/12/08 10:21:16;;;;;;;11.67;4.10;;;;;;;7.62;64.90;99466.72;5167395;28;20466;-44
2021/12/08 10:23:49;;;;;;;11.73;4.57;;;;;;;7.64;64.67;99480.50;5153421;28;20415;-43
2021/12/08 10:26:25;;;;;;;11.50;4.60;;;;;;;7.56;64.95;99470.81;5155116;28;20927;-46
2021/12/08 10:28:59;;;;;;;12.43;4.80;;;;;;;7.64;64.75;99485.75;5163069;28;20435;-43
2021/12/08 10:31:40;;;;;;;15.77;5.10;;;;;;;7.63;64.80;99473.59;5164170;28;20420;-44
2021/12/08 10:34:22;;;;;;;13.38;4.60;;;;;;;7.60;64.79;99487.06;5156921;28;20436;-43
2021/12/08 10:36:58;;;;;;;11.35;4.78;;;;;;;7.60;64.78;99479.19;5143053;28;20518;-42
2021/12/08 10:39:34;;;;;;;14.70;5.40;;;;;;;7.60;64.77;99494.94;5151651;28;20442;-43
2021/12/08 10:42:13;;;;;;;8.15;4.50;;;;;;;7.60;64.71;99485.25;5161888;28;20510;-42
2021/12/08 10:44:55;;;;;;;11.73;4.03;;;;;;;7.59;64.52;99482.81;5163110;28;20891;-43
2021/12/08 10:47:35;;;;;;;9.20;4.57;;;;;;;7.60;64.42;99485.25;5157239;28;20479;-44
2021/12/08 10:56:01;;;;;;;9.67;4.23;;;;;;;7.66;64.42;99472.47;5148297;28;20433;-42
2021/12/08 10:58:36;;;;;;;12.05;4.95;;;;;;;7.70;64.33;99479.84;5157306;28;20432;-43
2021/12/08 11:01:12;;;;;;;7.65;4.28;;;;;;;7.73;64.26;99497.91;5157924;28;20948;-43
2021/12/08 11:03:47;;;;;;;9.35;4.93;;;;;;;7.75;64.21;99498.56;5156292;28;20507;-42
2021/12/08 11:06:20;;;;;;;15.07;5.85;;;;;;;7.74;64.09;99488.22;5159160;28;20477;-43
2021/12/08 11:08:54;;;;;;;12.93;5.15;;;;;;;7.79;64.01;99497.25;5157989;28;20426;-44
2021/12/08 11:11:32;;;;;;;12.32;5.72;;;;;;;7.78;63.98;99511.38;5154229;28;20484;-47
2021/12/08 11:14:07;;;;;;;12.75;5.80;;;;;;;7.78;63.89;99497.44;5152897;28;20946;-43
2021/12/08 11:16:43;;;;;;;10.38;5.88;;;;;;;7.80;63.96;99501.53;5147371;28;21855;-45
2021/12/08 11:19:22;;;;;;;12.35;5.88;;;;;;;7.79;63.74;99497.25;5154486;28;20421;-46
2021/12/08 11:22:03;;;;;;;12.88;5.78;;;;;;;7.81;64.01;99487.41;5156176;28;20935;-42
2021/12/08 11:24:46;;;;;;;12.38;5.72;;;;;;;7.84;63.72;99492.31;5163617;28;20802;-56
2021/12/08 11:27:33;;;;;;;14.82;5.18;;;;;;;7.85;63.64;99490.50;5167787;28;20420;-43
2021/12/08 11:30:13;;;;;;;8.55;4.70;;;;;;;7.83;63.74;99485.44;5156869;28;20570;-44
2021/12/08 11:32:46;;;;;;;8.05;5.00;;;;;;;7.82;63.60;99483.78;5153092;28;20488;-44
2021/12/08 11:35:23;;;;;;;8.70;4.97;;;;;;;7.80;63.65;99487.56;5150433;28;20426;-42
2021/12/08 11:38:00;;;;;;;11.45;5.13;;;;;;;7.84;63.65;99489.69;5147803;28;20417;-44
2021/12/08 11:40:36;;;;;;;12.93;5.68;;;;;;;7.86;63.34;99492.97;5158844;28;20898;-45
2021/12/08 11:43:15;;;;;;;12.40;5.50;;;;;;;7.90;63.44;99500.53;5154547;28;20944;-43
2021/12/08 11:45:47;;;;;;;12.88;5.57;;;;;;;7.96;63.28;99510.38;5155878;28;20917;-43
2021/12/08 11:48:24;;;;;;;12.98;5.72;;;;;;;7.97;63.27;99498.91;5161554;28;20437;-48
2021/12/08 11:51:10;;;;;;;10.18;5.32;;;;;;;7.98;63.21;99492.63;5151511;28;20433;-48
2021/12/08 11:53:43;;;;;;;9.40;4.80;;;;;;;7.92;63.20;99480.16;5156444;28;20624;-48
2021/12/08 11:56:38;;;;;;;12.23;5.10;;;;;;;7.97;63.16;99506.78;5146181;28;20426;-45
2021/12/08 11:59:13;;;;;;;11.13;4.78;;;;;;;7.98;63.02;99505.78;5153136;28;20496;-43
2021/12/08 12:01:47;;;;;;;14.98;6.50;;;;;;;7.97;63.14;99506.78;5160691;28;20485;-45
2021/12/08 12:04:20;;;;;;;13.18;5.82;;;;;;;8.01;62.93;99503.63;5162950;28;20434;-40
2021/12/08 12:06:53;;;;;;;11.07;5.00;;;;;;;7.91;63.08;99481.16;5156529;28;20971;-42
2021/12/08 12:09:26;;;;;;;12.85;5.38;;;;;;;7.98;62.97;99498.72;5158911;28;20498;-43
2021/12/08 12:12:00;;;;;;;12.57;5.35;;;;;;;8.00;63.01;99501.19;5163254;28;20421;-43
2021/12/08 12:14:32;;;;;;;14.98;6.28;;;;;;;7.99;62.93;99505.63;5157909;28;20847;-42
2021/12/08 12:17:06;;;;;;;9.67;5.47;;;;;;;8.00;62.88;99495.94;5158365;28;20773;-45
2021/12/08 12:19:50;;;;;;;12.30;5.22;;;;;;;8.05;62.71;99514.63;5161964;28;21004;-43
2021/12/08 12:22:55;;;;;;;9.68;4.70;;;;;;;7.94;62.84;99494.78;5150182;28;20511;-51
2021/12/08 12:25:43;;;;;;;27.02;6.32;;;;;;;7.94;62.77;99494.78;5158409;28;20432;-43
2021/12/08 12:29:02;;;;;;;10.13;5.53;;;;;;;8.06;62.63;99509.22;5152752;28;20426;-45
2021/12/08 12:31:46;;;;;;;13.15;5.88;;;;;;;8.11;62.69;99508.72;5156365;28;20520;-43
2021/12/08 12:34:28;;;;;;;11.52;5.07;;;;;;;8.15;62.51;99511.88;5146501;28;20792;-44
2021/12/08 12:37:06;;;;;;;11.77;4.70;;;;;;;8.15;62.53;99515.31;5153739;28;20413;-43
2021/12/08 12:39:49;;;;;;;13.40;5.47;;;;;;;8.15;62.52;99512.69;5161733;28;20651;-43
2021/12/08 12:42:22;;;;;;;13.32;5.22;;;;;;;8.15;62.47;99520.56;5149141;28;20429;-48
2021/12/08 12:45:12;;;;;;;11.15;5.28;;;;;;;8.18;62.20;99535.19;5151805;28;20418;-44